Time;durP1;ratioP1;P1;durP2;ratioP2;P2;SDS_P1;SDS_P2;PMS_P1;PMS_P2;Temp;Humidity;BMP_temperature;BMP_pressure;BME280_temperature;BME280_humidity;BME280_pressure;Samples;Min_cycle;Max_cycle;Signal;HPM_P1;HPM_P2
2022/05/08 00:01:02;;;;;;;4.35;3.13;;;;;;;9.03;75.43;62931.84;5090755;28;20307;-74
2022/05/08 00:03:29;;;;;;;3.03;2.83;;;;;;;8.86;77.48;62912.25;5092213;28;20505;-73
2022/05/08 00:05:59;;;;;;;2.30;2.10;;;;;;;8.83;77.45;62911.69;5090505;28;20216;-74
2022/05/08 00:08:28;;;;;;;4.05;2.47;;;;;;;8.77;77.36;62902.94;5093365;28;20242;-74
2022/05/08 00:10:55;;;;;;;2.50;2.40;;;;;;;8.67;78.31;62894.63;5082684;28;20227;-73
2022/05/08 00:13:22;;;;;;;3.05;2.17;;;;;;;8.65;78.28;62890.56;5086582;28;20390;-74
2022/05/08 00:15:49;;;;;;;2.50;2.40;;;;;;;8.61;78.71;62886.41;5085035;28;20220;-75
2022/05/08 00:18:16;;;;;;;3.20;2.70;;;;;;;8.64;78.63;62892.06;5098548;28;20557;-74
2022/05/08 00:20:42;;;;;;;6.50;2.53;;;;;;;8.68;78.87;62895.69;5100017;28;20227;-74
2022/05/08 00:23:11;;;;;;;2.95;2.22;;;;;;;8.53;79.56;62875.09;5082922;28;20211;-73
2022/05/08 00:25:37;;;;;;;2.95;2.75;;;;;;;8.48;79.90;62878.06;5085227;28;20232;-73
2022/05/08 00:28:05;;;;;;;3.47;3.05;;;;;;;8.46;79.31;62870.91;5085848;28;20200;-73
2022/05/08 00:30:32;;;;;;;4.72;2.80;;;;;;;8.42;79.45;62866.28;5085476;28;20458;-74
2022/05/08 00:32:59;;;;;;;4.53;2.70;;;;;;;8.38;79.76;62864.69;5095056;28;20496;-74
2022/05/08 00:35:27;;;;;;;3.00;2.50;;;;;;;8.40;79.92;62866.75;5100758;28;20584;-73
2022/05/08 00:37:54;;;;;;;3.03;2.78;;;;;;;8.39;79.23;62868.75;5101949;28;20245;-74
2022/05/08 00:40:22;;;;;;;3.30;2.90;;;;;;;8.40;79.00;62864.22;5088337;28;20234;-74
2022/05/08 00:42:49;;;;;;;5.80;2.85;;;;;;;8.30;79.73;62854.38;5102772;28;20460;-74
2022/05/08 00:45:16;;;;;;;2.83;2.63;;;;;;;8.28;79.85;62854.34;5099170;28;20247;-74
2022/05/08 00:47:43;;;;;;;8.85;3.20;;;;;;;8.17;79.68;62840.94;5089939;28;20189;-74
2022/05/08 00:50:10;;;;;;;3.83;3.38;;;;;;;8.19;78.64;62840.47;5085815;28;20223;-74
2022/05/08 00:52:37;;;;;;;2.53;2.35;;;;;;;8.26;77.47;62855.34;5097787;28;20266;-74
2022/05/08 00:55:06;;;;;;;3.70;3.05;;;;;;;8.15;78.14;62839.41;5091031;28;20226;-74
2022/05/08 00:57:35;;;;;;;3.17;2.83;;;;;;;8.16;78.98;62845.00;5084673;28;20208;-73
2022/05/08 01:00:05;;;;;;;5.40;2.78;;;;;;;8.12;79.60;62833.78;5085734;28;20229;-73
2022/05/08 01:02:32;;;;;;;3.22;2.63;;;;;;;8.05;79.67;62829.09;5103405;28;20551;-74
2022/05/08 01:04:59;;;;;;;7.60;3.00;;;;;;;8.09;78.76;62833.19;5091223;28;20276;-73
2022/05/08 01:07:26;;;;;;;2.97;2.78;;;;;;;8.06;78.62;62827.03;5095529;28;20218;-73
2022/05/08 01:09:54;;;;;;;2.58;2.47;;;;;;;8.06;78.79;62832.13;5102553;28;20388;-74
2022/05/08 01:12:24;;;;;;;3.22;3.03;;;;;;;8.09;78.76;62833.19;5088479;28;20509;-75
2022/05/08 01:15:14;;;;;;;4.18;3.10;;;;;;;7.94;79.39;62817.72;5087528;28;20224;-74
2022/05/08 01:17:41;;;;;;;2.70;2.50;;;;;;;7.95;78.18;62816.22;5093728;28;20232;-74
2022/05/08 01:20:09;;;;;;;3.10;2.90;;;;;;;8.04;78.64;62822.47;5085342;28;20209;-75
2022/05/08 01:22:38;;;;;;;3.85;3.42;;;;;;;8.02;79.95;62825.97;5085531;28;20255;-74
2022/05/08 01:25:06;;;;;;;4.63;2.58;;;;;;;7.93;79.64;62818.69;5089245;28;20262;-74
2022/05/08 01:27:32;;;;;;;3.70;2.75;;;;;;;7.87;79.97;62813.03;5092038;28;20457;-74
2022/05/08 01:29:59;;;;;;;5.72;2.75;;;;;;;7.90;80.57;62811.03;5098330;28;20220;-75
2022/05/08 01:32:29;;;;;;;8.50;3.05;;;;;;;7.88;79.55;62811.00;5105748;28;20191;-74
2022/05/08 01:34:56;;;;;;;6.68;3.28;;;;;;;7.99;79.75;62822.34;5098523;28;20229;-74
2022/05/08 01:37:23;;;;;;;2.75;2.55;;;;;;;8.01;79.62;62824.41;5103947;28;20218;-74
2022/05/08 01:39:51;;;;;;;5.63;3.15;;;;;;;8.07;78.97;62833.16;5085012;28;20240;-74
2022/05/08 01:42:18;;;;;;;3.80;3.20;;;;;;;8.11;78.33;62835.25;5086170;28;20235;-76
2022/05/08 01:44:45;;;;;;;6.43;3.40;;;;;;;8.15;78.22;62841.41;5099058;28;20246;-74
2022/05/08 01:49:56;;;;;;;3.47;3.10;;;;;;;7.95;79.44;62821.28;5085204;28;20262;-74
2022/05/08 01:52:23;;;;;;;3.70;3.40;;;;;;;7.91;79.76;62814.09;5086660;28;20203;-74
2022/05/08 01:54:51;;;;;;;3.13;2.92;;;;;;;7.90;79.91;62816.09;5088849;28;20282;-73
2022/05/08 01:57:18;;;;;;;3.60;3.30;;;;;;;7.87;81.11;62809.97;5084223;28;20209;-74
2022/05/08 01:59:44;;;;;;;3.47;3.25;;;;;;;7.91;80.49;62814.63;5085239;28;20223;-73
2022/05/08 02:02:11;;;;;;;4.07;2.65;;;;;;;7.90;80.42;62816.09;5086852;28;20574;-74
2022/05/08 02:04:40;;;;;;;3.63;2.90;;;;;;;7.96;80.40;62826.88;5095697;28;20220;-74
2022/05/08 02:07:06;;;;;;;5.32;3.40;;;;;;;8.01;80.55;62824.41;5084852;28;20196;-74
2022/05/08 02:09:33;;;;;;;5.78;3.20;;;;;;;7.98;80.99;62824.38;5092181;28;20228;-74
2022/05/08 02:12:02;;;;;;;6.75;3.42;;;;;;;8.02;81.30;62823.44;5089802;28;20229;-74
2022/05/08 02:14:29;;;;;;;5.63;3.90;;;;;;;8.03;81.66;62824.47;5094658;28;20588;-73
2022/05/08 02:16:56;;;;;;;5.50;3.47;;;;;;;8.01;81.52;62826.97;5084780;28;20197;-74
2022/05/08 02:19:22;;;;;;;4.40;4.00;;;;;;;7.95;82.76;62815.69;5090039;28;20242;-74
2022/05/08 02:21:49;;;;;;;3.60;3.33;;;;;;;7.94;83.34;62817.19;5096561;28;20241;-74
2022/05/08 02:24:16;;;;;;;3.17;2.95;;;;;;;7.96;82.81;62821.78;5101798;28;20443;-75
2022/05/08 02:26:43;;;;;;;3.83;3.35;;;;;;;7.98;81.97;62823.88;5105077;28;20196;-74
2022/05/08 02:29:11;;;;;;;4.38;3.97;;;;;;;7.95;81.98;62821.28;5089634;28;20223;-74
2022/05/08 02:31:38;;;;;;;3.67;3.38;;;;;;;7.83;84.24;62805.84;5087262;28;20497;-74
2022/05/08 02:34:05;;;;;;;3.60;3.40;;;;;;;7.79;84.59;62801.72;5088716;28;20232;-74
2022/05/08 02:36:32;;;;;;;5.28;3.35;;;;;;;7.83;84.86;62800.78;5102576;28;20207;-74
2022/05/08 02:38:58;;;;;;;3.75;3.47;;;;;;;7.76;85.86;62793.53;5097722;28;20210;-74
2022/05/08 02:41:25;;;;;;;3.60;3.40;;;;;;;7.73;85.44;62798.56;5088533;28;20207;-74
2022/05/08 02:43:52;;;;;;;3.50;3.20;;;;;;;7.72;85.50;62794.47;5101469;28;20500;-74
2022/05/08 02:46:20;;;;;;;4.60;3.75;;;;;;;7.67;85.55;62789.31;5094823;28;20204;-74
2022/05/08 02:48:47;;;;;;;3.47;3.28;;;;;;;7.64;86.85;62789.28;5092227;28;20375;-74
2022/05/08 02:51:14;;;;;;;4.60;3.78;;;;;;;7.55;86.72;62774.41;5089752;28;20211;-75
2022/05/08 02:53:41;;;;;;;4.03;3.50;;;;;;;7.51;87.10;62773.31;5089463;28;20197;-74
2022/05/08 02:58:52;;;;;;;4.03;3.67;;;;;;;7.42;88.85;62766.06;5086878;28;20242;-74
2022/05/08 03:01:20;;;;;;;4.53;3.50;;;;;;;7.41;88.63;62765.00;5092610;28;20188;-73
2022/05/08 03:03:47;;;;;;;3.42;3.13;;;;;;;7.30;89.18;62751.66;5101321;28;20257;-74
2022/05/08 03:06:14;;;;;;;3.83;3.55;;;;;;;7.21;90.07;62739.84;5100743;28;20196;-74
2022/05/08 03:08:40;;;;;;;4.25;3.90;;;;;;;7.17;90.42;62738.25;5083224;28;20200;-73
2022/05/08 03:13:52;;;;;;;3.95;3.65;;;;;;;7.10;92.00;62733.53;5083166;28;20212;-74
2022/05/08 03:16:21;;;;;;;8.20;3.75;;;;;;;7.11;92.40;62732.03;5092066;28;20494;-74
2022/05/08 03:18:48;;;;;;;4.90;3.50;;;;;;;7.04;93.13;62727.88;5097669;28;20200;-73
2022/05/08 03:21:17;;;;;;;4.30;3.85;;;;;;;7.03;93.35;62723.78;5083197;28;20196;-74
2022/05/08 03:23:44;;;;;;;4.07;3.65;;;;;;;6.91;94.51;62708.88;5082684;28;20442;-73
2022/05/08 03:26:12;;;;;;;4.63;4.30;;;;;;;6.86;95.28;62708.78;5096995;28;20577;-73
2022/05/08 03:28:39;;;;;;;4.03;3.72;;;;;;;6.91;95.70;62713.94;5102340;28;20255;-74
2022/05/08 03:31:06;;;;;;;7.55;4.18;;;;;;;6.73;97.01;62690.31;5103962;28;20191;-73
2022/05/08 03:33:37;;;;;;;9.93;4.55;;;;;;;6.61;99.24;62675.41;5098049;28;20259;-73
2022/05/08 03:36:05;;;;;;;4.35;4.07;;;;;;;6.62;99.50;62679.50;5082281;28;20220;-74
2022/05/08 03:38:33;;;;;;;4.20;3.97;;;;;;;6.72;97.30;62697.38;5100421;28;20202;-74
2022/05/08 03:41:00;;;;;;;3.92;3.67;;;;;;;6.76;97.67;62699.00;5103482;28;20397;-75
2022/05/08 03:43:28;;;;;;;4.45;4.05;;;;;;;6.87;96.87;62707.28;5094385;28;20269;-73
2022/05/08 03:45:55;;;;;;;3.83;3.53;;;;;;;6.90;96.35;62707.84;5092061;28;20230;-74
2022/05/08 03:48:22;;;;;;;4.35;4.00;;;;;;;6.87;96.15;62707.81;5098222;28;20221;-74
2022/05/08 03:50:50;;;;;;;4.82;4.43;;;;;;;6.95;96.00;62718.06;5091083;28;20383;-73
2022/05/08 03:53:17;;;;;;;4.28;3.88;;;;;;;7.06;95.39;62724.34;5091657;28;20204;-73
2022/05/08 03:55:44;;;;;;;5.15;3.80;;;;;;;7.20;94.28;62743.84;5083127;28;20217;-74
2022/05/08 03:58:10;;;;;;;8.45;4.20;;;;;;;7.34;93.54;62755.25;5085864;28;20189;-74
2022/05/08 04:00:37;;;;;;;7.38;4.10;;;;;;;7.50;92.94;62774.31;5083161;28;20232;-74
2022/05/08 04:03:04;;;;;;;4.18;3.78;;;;;;;7.64;91.02;62788.75;5099214;28;20273;-73
2022/05/08 04:05:31;;;;;;;4.20;3.83;;;;;;;7.76;90.65;62796.09;5082940;28;20217;-74
2022/05/08 04:07:59;;;;;;;4.10;3.50;;;;;;;7.84;87.46;62806.88;5085003;28;20213;-75
2022/05/08 04:10:26;;;;;;;6.68;3.47;;;;;;;7.85;85.31;62810.44;5089120;28;20220;-74
2022/05/08 04:12:53;;;;;;;7.20;4.10;;;;;;;8.02;83.98;62822.94;5090292;28;20207;-74
2022/05/08 04:18:04;;;;;;;5.70;3.70;;;;;;;7.90;82.60;62810.53;5101511;28;20418;-74
2022/05/08 04:20:31;;;;;;;6.13;3.33;;;;;;;7.86;84.25;62809.47;5082497;28;20231;-74
2022/05/08 04:25:44;;;;;;;6.28;3.92;;;;;;;7.94;79.70;62817.19;5082067;28;20258;-75
2022/05/08 04:28:11;;;;;;;3.42;3.13;;;;;;;7.99;80.01;62824.88;5085715;28;20191;-74
2022/05/08 04:30:38;;;;;;;4.07;3.65;;;;;;;8.10;81.11;62836.25;5081882;28;20242;-74
2022/05/08 04:33:05;;;;;;;8.48;4.25;;;;;;;8.19;82.97;62841.00;5081670;28;20204;-74
2022/05/08 04:35:32;;;;;;;6.30;3.95;;;;;;;7.92;86.83;62810.06;5083395;28;20259;-74
2022/05/08 04:38:00;;;;;;;4.35;3.97;;;;;;;8.05;87.97;62826.03;5090035;28;20212;-74
2022/05/08 04:40:27;;;;;;;7.32;4.32;;;;;;;8.04;88.80;62830.56;5085957;28;20265;-75
2022/05/08 04:42:54;;;;;;;10.15;4.85;;;;;;;8.07;89.12;62831.16;5085457;28;20415;-75
2022/05/08 04:45:21;;;;;;;7.20;4.50;;;;;;;8.01;89.07;62824.41;5085982;28;20232;-74
2022/05/08 04:47:48;;;;;;;9.02;4.30;;;;;;;8.12;89.21;62838.84;5091212;28;20271;-74
2022/05/08 04:50:15;;;;;;;4.70;3.80;;;;;;;8.32;88.19;62856.47;5101316;28;20258;-74
2022/05/08 04:52:42;;;;;;;4.55;4.05;;;;;;;8.57;87.32;62881.78;5101200;28;20254;-74
2022/05/08 04:55:10;;;;;;;4.50;3.88;;;;;;;8.78;86.01;62901.47;5087751;28;20216;-74
2022/05/08 04:57:37;;;;;;;7.10;4.45;;;;;;;8.84;83.12;62910.19;5099111;28;20220;-75
2022/05/08 05:00:05;;;;;;;4.50;4.10;;;;;;;8.76;83.83;62903.94;5104869;28;20544;-74
2022/05/08 05:02:33;;;;;;;4.40;3.58;;;;;;;8.80;81.79;62903.00;5106577;28;20238;-74
2022/05/08 05:05:00;;;;;;;5.05;3.58;;;;;;;8.89;80.26;62912.81;5098318;28;20224;-73
2022/05/08 05:07:27;;;;;;;5.13;4.07;;;;;;;9.13;78.28;62939.63;5085773;28;20192;-73
2022/05/08 05:09:54;;;;;;;5.57;3.80;;;;;;;9.12;77.63;62939.13;5085266;28;20222;-74
2022/05/08 05:12:24;;;;;;;3.80;3.47;;;;;;;9.32;77.67;62961.81;5102198;28;20451;-75
2022/05/08 05:14:50;;;;;;;4.07;3.67;;;;;;;9.47;76.81;62974.81;5104661;28;20230;-75
2022/05/08 05:17:17;;;;;;;5.30;4.30;;;;;;;9.76;74.44;63001.72;5092049;28;20193;-75
2022/05/08 05:19:44;;;;;;;3.70;3.40;;;;;;;9.72;72.66;63000.13;5097253;28;20239;-74
2022/05/08 05:22:11;;;;;;;3.88;3.55;;;;;;;9.64;71.04;62994.91;5086600;28;20403;-75
2022/05/08 05:24:38;;;;;;;7.00;3.30;;;;;;;9.76;70.03;63007.34;5090977;28;20231;-75
2022/05/08 05:27:05;;;;;;;4.15;3.63;;;;;;;9.79;69.21;63005.34;5101464;28;20314;-75
2022/05/08 05:29:33;;;;;;;3.45;3.15;;;;;;;9.93;69.18;63021.84;5091077;28;20271;-74
2022/05/08 05:32:00;;;;;;;9.77;3.67;;;;;;;10.13;68.10;63043.06;5091855;28;20211;-74
2022/05/08 05:34:27;;;;;;;4.10;3.22;;;;;;;10.20;64.69;63050.31;5104259;28;20219;-74
2022/05/08 05:36:53;;;;;;;3.35;2.88;;;;;;;10.24;63.11;63054.47;5100187;28;20245;-74
2022/05/08 05:39:21;;;;;;;4.32;2.53;;;;;;;10.41;62.08;63068.97;5105765;28;20216;-75
2022/05/08 05:41:48;;;;;;;4.05;2.60;;;;;;;10.48;60.48;63074.22;5098700;28;20461;-75
2022/05/08 05:44:14;;;;;;;2.38;2.03;;;;;;;10.63;60.71;63093.78;5096519;28;20231;-75
2022/05/08 05:49:27;;;;;;;3.95;2.25;;;;;;;11.07;58.64;63139.84;5099425;28;20247;-73
2022/05/08 05:51:54;;;;;;;2.92;2.40;;;;;;;11.11;56.81;63138.88;5096071;28;20202;-74
2022/05/08 05:54:22;;;;;;;3.78;2.60;;;;;;;11.00;57.36;63132.59;5086728;28;20224;-74
2022/05/08 05:56:49;;;;;;;4.40;1.92;;;;;;;11.21;56.43;63153.84;5085002;28;20242;-75
2022/05/08 05:59:16;;;;;;;3.28;2.40;;;;;;;11.35;55.92;63168.84;5088061;28;20318;-74
2022/05/08 06:01:44;;;;;;;2.67;2.47;;;;;;;11.55;55.91;63191.59;5086730;28;20216;-75
2022/05/08 06:04:11;;;;;;;2.30;2.10;;;;;;;11.62;55.34;63191.19;5088977;28;20230;-75
2022/05/08 06:06:38;;;;;;;3.47;3.17;;;;;;;11.84;54.46;63219.09;5087831;28;20207;-75
2022/05/08 06:09:05;;;;;;;2.85;2.45;;;;;;;12.08;53.97;63243.97;5094691;28;20222;-74
2022/05/08 06:11:32;;;;;;;5.15;2.72;;;;;;;12.15;52.71;63253.78;5094653;28;20201;-75
2022/05/08 06:13:59;;;;;;;4.50;2.47;;;;;;;12.25;52.12;63261.09;5084299;28;20532;-75
2022/05/08 06:16:26;;;;;;;2.45;2.35;;;;;;;12.13;52.11;63251.22;5084062;28;20512;-73
2022/05/08 06:18:54;;;;;;;2.40;2.30;;;;;;;11.79;52.83;63213.41;5084297;28;20193;-75
2022/05/08 06:21:21;;;;;;;2.95;2.78;;;;;;;11.86;53.80;63218.63;5099109;28;20212;-75
2022/05/08 06:23:48;;;;;;;6.72;2.42;;;;;;;11.90;53.59;63230.44;5086946;28;20382;-75
2022/05/08 06:26:16;;;;;;;4.47;2.92;;;;;;;12.08;54.02;63243.47;5096110;28;20392;-75
2022/05/08 06:28:45;;;;;;;5.63;2.20;;;;;;;12.19;52.68;63255.38;5097113;28;20293;-75
2022/05/08 06:31:15;;;;;;;3.60;2.55;;;;;;;12.30;52.99;63271.91;5089307;28;20232;-76
2022/05/08 06:33:43;;;;;;;3.75;2.90;;;;;;;12.46;53.72;63282.84;5089814;28;20231;-75
2022/05/08 06:36:12;;;;;;;6.18;2.95;;;;;;;12.36;54.60;63273.00;5104311;28;20192;-76
2022/05/08 06:38:39;;;;;;;3.72;3.33;;;;;;;12.33;53.30;63274.47;5083115;28;20201;-75
2022/05/08 06:41:06;;;;;;;5.35;2.92;;;;;;;12.16;53.56;63252.28;5083485;28;20490;-75
2022/05/08 06:43:33;;;;;;;4.25;2.30;;;;;;;11.98;53.77;63238.72;5085082;28;20299;-75
2022/05/08 06:46:00;;;;;;;4.15;2.58;;;;;;;11.98;53.73;63233.63;5100625;28;20296;-75
2022/05/08 06:48:28;;;;;;;4.05;3.03;;;;;;;12.06;54.26;63249.06;5097493;28;20493;-76
2022/05/08 06:50:55;;;;;;;7.22;2.70;;;;;;;11.86;55.14;63223.72;5099298;28;20215;-74
2022/05/08 06:53:23;;;;;;;4.90;3.17;;;;;;;12.18;53.61;63256.91;5092339;28;20193;-74
2022/05/08 06:55:50;;;;;;;6.72;2.75;;;;;;;12.34;53.03;63272.97;5084859;28;20620;-76
2022/05/08 06:58:17;;;;;;;2.90;2.70;;;;;;;12.30;52.92;63269.34;5087584;28;20204;-75
2022/05/08 07:03:28;;;;;;;2.83;2.60;;;;;;;12.50;52.22;63290.06;5098006;28;20226;-74
2022/05/08 07:05:57;;;;;;;4.03;2.65;;;;;;;12.59;52.34;63301.44;5100264;28;20286;-75
2022/05/08 07:08:25;;;;;;;3.22;2.78;;;;;;;12.88;51.65;63328.44;5100147;28;20195;-75
2022/05/08 07:10:52;;;;;;;7.45;3.47;;;;;;;12.96;50.80;63334.19;5097371;28;20216;-74
2022/05/08 07:13:22;;;;;;;2.95;2.70;;;;;;;13.11;50.69;63347.22;5102031;28;20268;-77
2022/05/08 07:15:49;;;;;;;3.58;2.83;;;;;;;13.10;50.38;63353.84;5096904;28;20287;-77
2022/05/08 07:18:15;;;;;;;4.78;3.15;;;;;;;13.05;50.34;63343.53;5101338;28;20431;-77
2022/05/08 07:20:42;;;;;;;5.88;3.38;;;;;;;13.28;51.02;63362.28;5096851;28;20216;-75
2022/05/08 07:23:09;;;;;;;3.35;2.83;;;;;;;13.57;50.13;63398.00;5096709;28;20242;-77
2022/05/08 07:25:39;;;;;;;3.85;3.15;;;;;;;13.79;50.28;63420.84;5102134;28;20218;-77
2022/05/08 07:28:06;;;;;;;8.80;2.85;;;;;;;14.06;48.67;63450.91;5100963;28;20192;-75
2022/05/08 07:30:33;;;;;;;4.72;2.85;;;;;;;13.86;50.32;63428.09;5096492;28;20216;-76
2022/05/08 07:33:01;;;;;;;2.83;2.63;;;;;;;14.06;49.86;63450.91;5099202;28;20215;-76
2022/05/08 07:38:12;;;;;;;7.07;2.95;;;;;;;14.29;47.31;63472.25;5100076;28;20190;-77
2022/05/08 07:40:42;;;;;;;4.35;2.95;;;;;;;14.17;48.06;63459.25;5099949;28;20283;-78
2022/05/08 07:43:09;;;;;;;2.97;2.70;;;;;;;14.41;47.57;63486.75;5101112;28;20550;-76
2022/05/08 07:45:36;;;;;;;2.78;2.58;;;;;;;14.42;47.60;63480.09;5099609;28;20231;-77
2022/05/08 07:48:03;;;;;;;8.57;2.85;;;;;;;14.30;49.90;63473.28;5096461;28;20567;-77
2022/05/08 07:50:30;;;;;;;6.45;2.47;;;;;;;14.44;48.36;63485.28;5093545;28;20220;-77
2022/05/08 07:52:57;;;;;;;3.90;2.50;;;;;;;14.55;47.17;63501.28;5101540;28;20534;-76
2022/05/08 07:55:25;;;;;;;4.22;2.80;;;;;;;14.28;47.47;63470.69;5092415;28;20221;-76
2022/05/08 07:57:53;;;;;;;2.47;2.28;;;;;;;14.38;47.54;63481.59;5097911;28;20208;-76
2022/05/08 08:00:20;;;;;;;5.68;3.10;;;;;;;14.42;49.22;63482.66;5087567;28;20224;-77
2022/05/08 08:02:47;;;;;;;3.15;2.58;;;;;;;14.72;49.82;63519.47;5103580;28;20221;-76
2022/05/08 08:05:14;;;;;;;2.78;2.58;;;;;;;14.96;48.37;63541.34;5096045;28;20384;-76
2022/05/08 08:07:41;;;;;;;2.47;2.28;;;;;;;15.10;46.83;63555.34;5086088;28;20216;-77
2022/05/08 08:10:08;;;;;;;2.83;2.35;;;;;;;15.21;47.17;63571.91;5097117;28;20223;-75
2022/05/08 08:12:36;;;;;;;5.30;2.58;;;;;;;15.53;47.15;63605.69;5102941;28;20255;-76
2022/05/08 08:15:05;;;;;;;3.90;2.72;;;;;;;15.64;45.67;63614.06;5091932;28;20215;-75
2022/05/08 08:17:32;;;;;;;3.83;2.55;;;;;;;15.61;46.03;63616.59;5091276;28;20196;-74
2022/05/08 08:19:59;;;;;;;5.47;2.40;;;;;;;15.67;46.86;63612.06;5083941;28;20227;-76
2022/05/08 08:22:26;;;;;;;3.25;2.53;;;;;;;15.79;47.16;63627.59;5096156;28;20195;-74
2022/05/08 08:24:52;;;;;;;5.80;3.17;;;;;;;15.87;46.51;63638.50;5087936;28;20235;-75
2022/05/08 08:27:20;;;;;;;2.85;2.65;;;;;;;16.01;47.21;63647.91;5087009;28;20208;-75
2022/05/08 08:29:46;;;;;;;3.80;2.70;;;;;;;15.99;45.42;63648.41;5083708;28;20220;-75
2022/05/08 08:32:15;;;;;;;2.75;2.55;;;;;;;16.23;46.58;63672.31;5092015;28;20196;-75
2022/05/08 08:34:42;;;;;;;2.85;2.50;;;;;;;16.54;45.52;63704.59;5091656;28;20215;-75
2022/05/08 08:37:09;;;;;;;2.42;2.10;;;;;;;16.42;45.51;63692.59;5085772;28;20313;-75
2022/05/08 08:39:36;;;;;;;6.10;2.60;;;;;;;16.33;45.31;63682.72;5102520;28;20532;-75
2022/05/08 08:42:14;;;;;;;7.32;2.55;;;;;;;16.35;45.57;63689.94;5093386;28;20196;-75
2022/05/08 08:47:45;;;;;;;3.17;2.65;;;;;;;16.71;44.25;63722.28;5099878;28;20364;-75
2022/05/08 08:50:13;;;;;;;3.55;2.60;;;;;;;16.72;44.11;63726.41;5097430;28;20250;-76
2022/05/08 08:52:40;;;;;;;6.22;2.78;;;;;;;17.02;45.88;63759.69;5097913;28;20192;-75
2022/05/08 08:55:08;;;;;;;3.00;2.65;;;;;;;17.20;44.45;63776.34;5095667;28;20246;-74
2022/05/08 08:57:35;;;;;;;2.50;2.40;;;;;;;17.27;41.67;63781.06;5103656;28;20207;-75
2022/05/08 09:00:02;;;;;;;2.75;2.55;;;;;;;17.30;43.63;63781.63;5093545;28;20425;-75
2022/05/08 09:02:30;;;;;;;3.47;2.67;;;;;;;17.35;43.71;63788.88;5083590;28;20598;-73
2022/05/08 09:04:58;;;;;;;3.92;2.42;;;;;;;17.53;40.41;63812.81;5085962;28;20420;-74
2022/05/08 09:07:42;;;;;;;3.00;2.75;;;;;;;17.57;41.66;63811.81;5095904;28;20191;-75
2022/05/08 09:10:10;;;;;;;3.58;2.50;;;;;;;17.69;40.89;63823.78;5099956;28;20238;-75
2022/05/08 09:12:37;;;;;;;2.83;2.53;;;;;;;17.54;40.77;63810.72;5092933;28;20218;-75
2022/05/08 09:15:24;;;;;;;2.85;2.58;;;;;;;17.77;41.68;63834.69;5090340;28;20261;-75
2022/05/08 09:17:54;;;;;;;2.97;2.42;;;;;;;18.08;41.11;63866.97;5092979;28;20203;-75
2022/05/08 09:20:29;;;;;;;3.20;2.97;;;;;;;18.09;40.78;63868.00;5082790;28;20255;-75
2022/05/08 09:23:08;;;;;;;2.33;2.22;;;;;;;17.94;39.11;63852.94;5086688;28;20252;-74
2022/05/08 09:25:46;;;;;;;3.67;2.13;;;;;;;17.78;39.58;63838.31;5097504;28;20257;-75
2022/05/08 09:28:14;;;;;;;2.55;2.35;;;;;;;17.97;39.75;63856.03;5100981;28;20195;-74
2022/05/08 09:31:01;;;;;;;3.60;2.30;;;;;;;18.12;38.89;63871.66;5099367;28;20585;-74
2022/05/08 09:33:32;;;;;;;3.72;2.70;;;;;;;18.23;40.87;63887.75;5093520;28;20383;-75
2022/05/08 09:36:01;;;;;;;3.72;2.13;;;;;;;18.34;38.78;63892.00;5105754;28;20273;-74
2022/05/08 09:38:45;;;;;;;4.85;2.38;;;;;;;18.36;39.80;63899.25;5102124;28;20207;-75
2022/05/08 09:41:13;;;;;;;2.75;2.55;;;;;;;18.70;39.60;63931.59;5088722;28;20198;-76
2022/05/08 09:43:41;;;;;;;2.28;2.17;;;;;;;18.79;36.68;63941.00;5105956;28;20195;-75
2022/05/08 09:46:09;;;;;;;2.50;2.30;;;;;;;19.08;36.73;63968.13;5105397;28;20511;-75
2022/05/08 09:48:37;;;;;;;2.20;1.80;;;;;;;19.13;33.66;63979.00;5093055;28;20253;-75
2022/05/08 09:51:06;;;;;;;4.72;2.60;;;;;;;19.34;36.26;63998.34;5090799;28;20235;-75
2022/05/08 09:53:34;;;;;;;4.25;2.47;;;;;;;19.37;36.98;64004.06;5089428;28;20428;-74
2022/05/08 09:56:04;;;;;;;2.78;2.58;;;;;;;19.15;35.88;63981.09;5105607;28;20223;-74
2022/05/08 09:58:32;;;;;;;7.60;2.90;;;;;;;19.29;36.90;63993.09;5103812;28;20488;-75
2022/05/08 10:00:59;;;;;;;3.55;2.85;;;;;;;19.44;38.67;64005.66;5093688;28;20224;-78
2022/05/08 10:03:26;;;;;;;2.70;2.50;;;;;;;19.43;37.34;64010.31;5098042;28;20480;-75
2022/05/08 10:05:55;;;;;;;2.47;2.22;;;;;;;19.53;36.56;64022.81;5102083;28;20473;-74
2022/05/08 10:08:24;;;;;;;2.50;2.30;;;;;;;19.54;37.20;64019.19;5103434;28;20489;-74
2022/05/08 10:13:54;;;;;;;2.92;2.78;;;;;;;19.78;40.03;64043.72;5085214;28;20219;-75
2022/05/08 10:16:50;;;;;;;2.97;2.78;;;;;;;19.97;37.23;64063.53;5101887;28;20423;-76
2022/05/08 10:19:56;;;;;;;2.83;2.60;;;;;;;20.05;36.02;64068.78;5088702;28;20283;-74
2022/05/08 10:22:24;;;;;;;3.08;2.58;;;;;;;19.98;35.20;64067.16;5100940;28;20195;-74
2022/05/08 10:24:57;;;;;;;3.30;3.00;;;;;;;20.02;36.94;64071.31;5103720;28;20242;-75
2022/05/08 10:27:27;;;;;;;2.30;2.20;;;;;;;20.00;33.73;64066.66;5097774;28;20219;-75
2022/05/08 10:30:31;;;;;;;3.15;2.63;;;;;;;19.76;34.25;64046.28;5084418;28;20224;-74
2022/05/08 10:32:58;;;;;;;2.95;2.70;;;;;;;19.89;35.94;64055.19;5083928;28;20199;-76
2022/05/08 10:35:27;;;;;;;2.13;2.05;;;;;;;20.02;34.33;64071.31;5092490;28;20540;-74
2022/05/08 10:38:25;;;;;;;2.70;2.45;;;;;;;19.95;32.01;64064.03;5087136;28;20449;-74
2022/05/08 10:40:55;;;;;;;5.25;2.30;;;;;;;19.92;34.28;64060.38;5084676;28;20381;-74
2022/05/08 10:43:32;;;;;;;2.35;2.25;;;;;;;19.91;33.16;64057.28;5086044;28;20242;-75
2022/05/08 10:46:24;;;;;;;2.40;2.30;;;;;;;19.96;34.51;64064.56;5093276;28;20242;-75
2022/05/08 10:48:54;;;;;;;2.08;1.98;;;;;;;20.14;32.55;64080.75;5088268;28;20206;-75
2022/05/08 10:51:21;;;;;;;5.47;2.28;;;;;;;20.13;32.23;64080.22;5099991;28;20513;-75
2022/05/08 10:53:50;;;;;;;2.03;1.83;;;;;;;20.39;34.44;64109.97;5086088;28;20199;-75
2022/05/08 10:56:17;;;;;;;2.92;2.67;;;;;;;20.57;35.08;64126.16;5089813;28;20202;-75
2022/05/08 10:58:53;;;;;;;4.18;2.50;;;;;;;20.87;35.68;64153.84;5104167;28;20234;-76
2022/05/08 11:01:20;;;;;;;5.30;2.40;;;;;;;21.12;33.19;64179.97;5099451;28;20206;-76
2022/05/08 11:03:47;;;;;;;2.72;2.58;;;;;;;21.14;34.32;64182.56;5099766;28;20443;-75
2022/05/08 11:06:21;;;;;;;3.35;2.42;;;;;;;21.25;34.06;64196.66;5103875;28;20227;-75
2022/05/08 11:08:50;;;;;;;1.73;1.73;;;;;;;21.19;33.92;64187.28;5100562;28;20263;-75
2022/05/08 11:11:18;;;;;;;2.42;2.33;;;;;;;21.32;34.26;64203.97;5083811;28;20242;-74
2022/05/08 11:13:47;;;;;;;2.35;2.15;;;;;;;21.31;33.16;64202.91;5085214;28;20515;-74
2022/05/08 11:16:29;;;;;;;2.63;2.30;;;;;;;21.47;32.71;64224.81;5083753;28;20195;-74
2022/05/08 11:18:59;;;;;;;2.67;2.38;;;;;;;21.47;33.55;64219.09;5089961;28;20263;-75
2022/05/08 11:21:26;;;;;;;3.92;2.30;;;;;;;21.51;34.73;64223.28;5088735;28;20223;-75
2022/05/08 11:23:55;;;;;;;2.22;2.10;;;;;;;21.54;34.23;64223.84;5086403;28;20204;-75
2022/05/08 11:26:29;;;;;;;3.88;2.08;;;;;;;21.25;32.10;64198.72;5084650;28;20234;-75
2022/05/08 11:28:58;;;;;;;2.83;2.20;;;;;;;21.47;31.77;64219.63;5088547;28;20195;-75
2022/05/08 11:31:25;;;;;;;2.10;2.00;;;;;;;21.59;31.65;64229.59;5089593;28;20196;-75
2022/05/08 11:36:38;;;;;;;4.63;2.22;;;;;;;21.87;31.07;64260.94;5087908;28;20201;-76
2022/05/08 11:39:11;;;;;;;2.10;1.90;;;;;;;22.07;32.35;64278.72;5091485;28;20376;-75
2022/05/08 11:41:39;;;;;;;2.30;2.03;;;;;;;22.26;32.04;64299.06;5096071;28;20249;-75
2022/05/08 11:44:24;;;;;;;2.00;1.90;;;;;;;22.40;29.53;64313.22;5103302;28;20222;-76
2022/05/08 11:46:54;;;;;;;4.93;4.03;;;;;;;22.32;29.12;64304.84;5087933;28;20203;-75
2022/05/08 11:49:22;;;;;;;2.92;2.10;;;;;;;22.47;28.88;64323.63;5095667;28;20219;-74
2022/05/08 11:51:51;;;;;;;1.77;1.67;;;;;;;22.39;30.62;64312.69;5103361;28;20225;-76
2022/05/08 11:54:21;;;;;;;2.10;2.00;;;;;;;22.59;29.95;64335.69;5088289;28;20367;-75
2022/05/08 11:56:51;;;;;;;3.20;1.98;;;;;;;22.72;28.05;64352.38;5088654;28;20253;-75
2022/05/08 11:59:20;;;;;;;1.80;1.70;;;;;;;22.79;27.08;64359.19;5092753;28;20433;-75
2022/05/08 12:01:52;;;;;;;3.75;1.90;;;;;;;22.87;25.47;64364.94;5087630;28;20204;-75
2022/05/08 12:04:24;;;;;;;2.20;2.00;;;;;;;22.88;26.00;64369.09;5096434;28;20215;-77
2022/05/08 12:07:03;;;;;;;1.83;1.50;;;;;;;22.90;23.17;64373.81;5098812;28;20263;-76
2022/05/08 12:09:33;;;;;;;2.00;1.90;;;;;;;23.03;27.46;64384.28;5101110;28;20211;-75
2022/05/08 12:12:22;;;;;;;1.27;1.27;;;;;;;23.15;24.22;64394.22;5097622;28;20199;-75
2022/05/08 12:14:49;;;;;;;2.63;1.08;;;;;;;23.16;22.79;64392.66;5094081;28;20216;-76